Vancouver / Coquitlam Fire and Rescue Heliport

CFR6 · British Columbia, Canada

METAR history CFR6 · Vancouver / Coquitlam Fire and Rescue Heliport

Below you see METARs of the last few days. Select a year to browse through older METARs, from the year 2007 onwards.

June 21, 2024

Time Code Weather Temp. Visibility Ceiling Wind METAR/SPECI
01:00
V
17 °C 15 mi - 360° 360° 4 kt METAR CYVR 210800Z 36004KT 15SM FEW160 17/14 A2995 RMK AC1 AC TR SLP145
00:00
V
16 °C 15 mi - 360° 360° 0 kt METAR CYVR 210700Z 00000KT 15SM FEW160 FEW220 16/14 A2995 RMK AC1CI1 AC TR CI TR SLP146

June 20, 2024

Time Code Weather Temp. Visibility Ceiling Wind METAR/SPECI
23:00
V
17 °C 15 mi - Var Var 2 kt METAR CYVR 210600Z VRB02KT 15SM FEW055 FEW160 FEW220 17/14 A2995 RMK SC1AC1CI1 SC TR AC TR CI TR FU NE-E SLP146
22:00
V
17 °C 15 mi - 180° 180° 4 kt METAR CYVR 210500Z 18004KT 15SM FEW110 FEW160 FEW220 17/16 A2995 RMK AC1AC1CI1 AC TR AC TR CI TR FU NE-E SLP145 DENSITY ALT 300FT
21:00
V
19 °C 15 mi - 220° 220° 3 kt METAR CYVR 210400Z 22003KT 15SM FEW160 FEW220 19/16 A2994 RMK AC1CI1 AC TR CI TR FU NE - E SLP141 DENSITY ALT 500FT
20:00
V
20 °C 20 mi - 250° 250° 3 kt METAR CYVR 210300Z 25003KT 20SM FEW055 FEW160 FEW220 20/16 A2994 RMK CU1AC1CI1 CU TR AC TR CI TR SLP141 DENSITY ALT 600FT
19:00
V
22 °C 20 mi - 290° 290° 6 kt METAR CYVR 210200Z 29006KT 20SM FEW050 FEW220 22/15 A2995 RMK CU1CI1 CU TR CI TR SLP143 DENSITY ALT 800FT
18:00
V
21 °C 20 mi - 280° 280° 7 kt METAR CYVR 210100Z 28007KT 20SM FEW050 FEW220 21/16 A2995 RMK CU1CI1 CU TR CI TR SLP146 DENSITY ALT 700FT
17:00
V
23 °C 20 mi - 290° 290° 6 kt METAR CYVR 210000Z 29006KT 20SM FEW050 FEW220 23/15 A2997 RMK CU1CI1 CU TR CI TR SLP152 DENSITY ALT 900FT
16:00
V
22 °C 20 mi - 300° 300° 8 kt METAR CYVR 202300Z 30008KT 20SM FEW050 FEW220 22/15 A2999 RMK CU1CI1 CU TR CI TR SLP157 DENSITY ALT 800FT
15:00
V
22 °C 20 mi - 290° 290° 8 kt METAR CYVR 202200Z 29008KT 20SM FEW050 22/15 A3000 RMK CU1 CU TR SLP160 DENSITY ALT 800FT
14:00
V
21 °C 20 mi - 300° 300° 9 kt METAR CYVR 202100Z 30009KT 20SM FEW050 21/15 A3001 RMK CU1 CU TR SLP165 DENSITY ALT 700FT
13:00
V
21 °C 20 mi - 290° 290° 10 kt METAR CYVR 202000Z 29010KT 20SM FEW050 21/15 A3002 RMK CU1 CU TR SLP169 DENSITY ALT 700FT
12:00
V
21 °C 20 mi - 290° 290° 11 kt METAR CYVR 201900Z 29011KT 20SM FEW050 21/15 A3003 RMK CU1 CU TR SLP173 DENSITY ALT 600FT
11:00
V
20 °C 20 mi - 300° 300° 11 kt METAR CYVR 201800Z 30011KT 20SM FEW050 20/14 A3004 RMK CU1 CU TR SLP174 DENSITY ALT 500FT
10:00
V
19 °C 20 mi - 300° 300° 12 kt METAR CYVR 201700Z 30012KT 20SM FEW050 19/15 A3004 RMK CU1 CU TR SLP174 DENSITY ALT 400FT
09:00
V
19 °C 20 mi - 300° 300° 9 kt METAR CYVR 201600Z 30009KT 20SM SKC 19/14 A3004 RMK SLP174 DENSITY ALT 400FT
08:00
V
18 °C 20 mi - 310° 310° 7 kt METAR CYVR 201500Z 31007KT 20SM FEW100 18/14 A3003 RMK ACC1 ACC TR SLP173
07:00
V
16 °C 20 mi - 290° 290° 9 kt METAR CYVR 201400Z 29009KT 20SM FEW100 16/12 A3002 RMK ACC1 ACC TR SLP169
06:00
V
14 °C 20 mi - 300° 300° 7 kt METAR CYVR 201300Z 30007KT 20SM FEW090 14/13 A3002 RMK ACC1 ACC TR SLP167
05:00
V
12 °C 20 mi - 360° 360° 0 kt METAR CYVR 201200Z 00000KT 20SM FEW140 12/09 A3000 RMK ACC1 ACC TR SLP163
04:00
V
12 °C 20 mi - 350° 350° 3 kt METAR CYVR 201100Z 35003KT 20SM FEW150 12/09 A3000 RMK AC1 AC TR SLP161
03:00
V
13 °C 20 mi - 350° 350° 3 kt METAR CYVR 201000Z 35003KT 20SM SKC 13/10 A2999 RMK SLP158
02:00
V
11 °C 20 mi - Var Var 2 kt METAR CYVR 200900Z VRB02KT 20SM SKC 11/11 A2999 RMK SLP157
01:00
V
14 °C 20 mi - 360° 360° 0 kt METAR CYVR 200800Z 00000KT 20SM SKC 14/14 A2998 RMK SLP154
00:00
V
14 °C 20 mi - 340° 340° 3 kt METAR CYVR 200700Z 34003KT 20SM SKC 14/14 A2998 RMK SLP155

June 19, 2024

Time Code Weather Temp. Visibility Ceiling Wind METAR/SPECI
23:00
V
15 °C 20 mi - 230° 230° 3 kt METAR CYVR 200600Z 23003KT 20SM SKC 15/15 A2998 RMK SLP155
22:00
V
16 °C 20 mi - 250° 250° 5 kt METAR CYVR 200500Z 25005KT 20SM SKC 16/15 A2997 RMK SLP152
21:00
V
16 °C 20 mi - 270° 270° 3 kt METAR CYVR 200400Z 27003KT 20SM FEW220 16/15 A2996 RMK CI1 CI TR TCU TOP E SLP148
20:00
V
19 °C 20 mi - 300° 300° 3 kt METAR CYVR 200300Z 30003KT 260V320 20SM SKC 19/15 A2996 RMK TCU TOP E AND W SLP147 DENSITY ALT 500FT
19:00
V
20 °C 20 mi - 280° 280° 6 kt METAR CYVR 200200Z 28006KT 20SM SKC 20/15 A2996 RMK TCU TOPS N AND E SLP148 DENSITY ALT 600FT
18:00
V
21 °C 30 mi - 280° 280° 6 kt METAR CYVR 200100Z 28006KT 30SM FEW048 FEW063TCU FEW240 21/15 A2997 RMK CU1TCU1CI1 TCU TR CI TR TCU E W SLP151 DENSITY ALT 700FT
17:00
V
21 °C 30 mi - 290° 290° 6 kt METAR CYVR 200000Z 29006KT 30SM FEW049 21/14 A2998 RMK CU1 SLP155 DENSITY ALT 700FT
16:00
V
20 °C 30 mi - 270° 270° 7 kt METAR CYVR 192300Z 27007KT 230V300 30SM FEW052 20/14 A2999 RMK CU2 SLP159 DENSITY ALT 600FT
15:00
V
20 °C 30 mi - 280° 280° 8 kt METAR CYVR 192200Z 28008KT 30SM FEW052 20/13 A3000 RMK CU1 SLP162 DENSITY ALT 600FT
14:00
V
20 °C 30 mi - 280° 280° 7 kt METAR CYVR 192100Z 28007KT 30SM FEW049 20/14 A3002 RMK CU1 SLP167 DENSITY ALT 500FT
13:00
V
19 °C 30 mi - 280° 280° 7 kt METAR CYVR 192000Z 28007KT 30SM FEW048 FEW058 19/13 A3003 RMK SC1CU1 SC TR CU TR SLP170 DENSITY ALT 400FT
12:00
V
18 °C 30 mi - 260° 260° 8 kt METAR CYVR 191900Z 26008KT 30SM FEW048 FEW059 18/14 A3003 RMK SC1CU1 SC TR CU TR SLP171 DENSITY ALT 300FT
11:00
V
17 °C 30 mi - 260° 260° 8 kt METAR CYVR 191800Z 26008KT 30SM FEW048 FEW059 17/13 A3004 RMK SC1SC1 SC TR SC TR SLP174
10:00
V
17 °C 30 mi 24,000 ft 280° 280° 7 kt METAR CYVR 191700Z 28007KT 30SM FEW051 BKN240 17/13 A3004 RMK SC1CI1 SC TR CI TR SLP175
09:00
V
16 °C 30 mi - 300° 300° 5 kt METAR CYVR 191600Z 30005KT 230V330 30SM FEW240 16/12 A3004 RMK CI1 CI TR SLP176
08:00
V
15 °C 30 mi - Var Var 2 kt METAR CYVR 191500Z VRB02KT 30SM FEW240 15/11 A3004 RMK CI1 CI TR SLP175
07:00
V
13 °C 30 mi - 150° 150° 2 kt METAR CYVR 191400Z 15002KT 30SM FEW240 13/11 A3004 RMK CI1 CI TR SLP175
06:00
V
11 °C 20 mi - 360° 360° 0 kt METAR CYVR 191300Z 00000KT 20SM FEW220 11/09 A3003 RMK CI1 CI TR SLP170
05:00
V
10 °C 20 mi - 360° 360° 0 kt METAR CYVR 191200Z 00000KT 20SM FEW220 10/10 A3002 RMK CI1 CI TR SLP167
04:00
V
12 °C 20 mi - 070° 070° 3 kt METAR CYVR 191100Z 07003KT 20SM FEW070 12/09 A3000 RMK AC1 AC TR SLP163
03:00
V
13 °C 20 mi - 060° 060° 4 kt METAR CYVR 191000Z 06004KT 20SM SKC 13/10 A3001 RMK SLP164
02:00
V
13 °C 20 mi - 070° 070° 5 kt METAR CYVR 190900Z 07005KT 20SM SKC 13/10 A3001 RMK SLP165
01:00
V
13 °C 20 mi - 070° 070° 4 kt METAR CYVR 190800Z 07004KT 20SM SKC 13/10 A3001 RMK SLP164
00:00
V
13 °C 20 mi - 080° 080° 4 kt METAR CYVR 190700Z 08004KT 20SM SKC 13/10 A3001 RMK SLP166

June 18, 2024

Time Code Weather Temp. Visibility Ceiling Wind METAR/SPECI
23:00
V
14 °C 20 mi - 130° 130° 4 kt METAR CYVR 190600Z 13004KT 20SM FEW160 14/10 A3001 RMK AC1 AC TR SLP166
Report a change